General Aviation Weather

Text Reports

Enter one or more of the following location identifiers separated by a space:

Zip Code, Four-Character ICAO or Three-Character IATA airport codes.

METAR - Aviation Routine Weather Report
KFYJ - West Point, Virginia
Updated at 10:55 PM GMT on April 23, 2014 (6:55 PM EDT):
METAR KFYJ 232255Z AUTO 32004KT 10SM CLR 18/M02 A2986 RMK AO2 T01821019
TAF - Terminal Area Forecast
KFYJ - West Point, Virginia
Updated at 10:55 PM GMT on April 23, 2014 (6:55 PM EDT):
No TAF is currently available for this location.
Decoded:
No decoded TAF is available.
PIREP - Pilot Weather Report
KFYJ - West Point, Virginia
Updated at 10:55 PM GMT on April 23, 2014 (6:55 PM EDT):
No PIREP is currently available for this location.
AIRMET - Airmens Meteorological Information
KFYJ - West Point, Virginia
Updated at 10:55 PM GMT on April 23, 2014 (6:55 PM EDT):
No AIRMET is currently available for this location.
SIGMET - Significant Meteorological Information
KFYJ - West Point, Virginia
Updated at 10:55 PM GMT on April 23, 2014 (6:55 PM EDT):
No SIGMET is currently available for this location.
NOTAM - Notice to Airmen
KFYJ - West Point, Virginia
Updated at 10:55 PM GMT on April 23, 2014 (6:55 PM EDT):
No NOTAM is currently available for this location.
Forecast Area
KFYJ - West Point, Virginia
Updated at 10:55 PM GMT on April 23, 2014 (6:55 PM EDT):
No NOTAM is currently available for this location.
Aviation Weather Maps